Time;durP1;ratioP1;P1;durP2;ratioP2;P2;SDS_P1;SDS_P2;PMS_P1;PMS_P2;Temp;Humidity;BMP_temperature;BMP_pressure;BME280_temperature;BME280_humidity;BME280_pressure;Samples;Min_cycle;Max_cycle;Signal;HPM_P1;HPM_P2
2022/01/16 00:04:11;;;;;;;28.30;13.43;;;;;;;2.45;72.20;101983.66;4995118;28;20205;-78
2022/01/16 00:06:47;;;;;;;29.50;15.00;;;;;;;2.45;72.64;101980.22;4995131;28;20172;-77
2022/01/16 00:09:13;;;;;;;29.37;15.63;;;;;;;2.47;72.72;101979.75;4994641;28;20169;-77
2022/01/16 00:11:40;;;;;;;29.30;15.03;;;;;;;2.42;72.29;101965.50;4994504;28;20728;-77
2022/01/16 00:14:07;;;;;;;27.47;15.10;;;;;;;2.49;72.09;101968.25;4994813;28;20177;-76
2022/01/16 00:16:33;;;;;;;26.37;14.40;;;;;;;2.55;72.18;101975.78;4994001;28;20178;-76
2022/01/16 00:18:58;;;;;;;31.03;16.73;;;;;;;2.62;71.37;101972.53;4994762;28;20239;-76
2022/01/16 00:21:27;;;;;;;31.37;16.00;;;;;;;2.65;71.05;101972.94;4994741;28;20267;-77
2022/01/16 00:23:53;;;;;;;32.70;14.50;;;;;;;2.60;70.98;101976.44;4994595;28;20177;-77
2022/01/16 00:26:20;;;;;;;30.53;15.00;;;;;;;2.73;70.74;101992.69;4994532;28;20181;-76
2022/01/16 00:28:47;;;;;;;32.77;15.20;;;;;;;2.77;70.42;102007.59;4994525;28;20178;-77
2022/01/16 00:31:13;;;;;;;23.00;13.23;;;;;;;2.59;70.78;101977.16;4994247;28;20189;-77
2022/01/16 00:33:42;;;;;;;22.03;12.80;;;;;;;2.80;70.38;101997.91;4994284;28;20188;-78
2022/01/16 00:36:08;;;;;;;29.87;14.10;;;;;;;2.75;70.15;102014.06;4994662;28;20181;-78
2022/01/16 00:38:34;;;;;;;26.20;14.07;;;;;;;2.74;70.20;102025.81;4994080;28;20188;-78
2022/01/16 00:41:01;;;;;;;30.90;14.23;;;;;;;2.75;70.04;102063.09;4994134;28;20209;-78
2022/01/16 00:43:26;;;;;;;28.50;13.10;;;;;;;2.46;70.44;102037.69;4994059;28;20566;-78
2022/01/16 00:45:52;;;;;;;30.53;14.87;;;;;;;2.58;70.39;102084.13;4993226;28;20277;-77
2022/01/16 00:48:17;;;;;;;23.07;12.80;;;;;;;2.74;70.44;102046.06;4994206;28;20169;-77
2022/01/16 00:50:43;;;;;;;28.27;13.80;;;;;;;2.64;69.80;101978.72;4993050;28;20201;-78
2022/01/16 00:53:09;;;;;;;25.83;13.03;;;;;;;2.70;69.76;101994.78;4994003;28;20177;-78
2022/01/16 00:55:38;;;;;;;26.57;13.73;;;;;;;2.88;69.72;101991.41;4994163;28;20641;-77
2022/01/16 00:58:04;;;;;;;23.63;13.60;;;;;;;2.86;68.83;101856.09;4993249;28;20197;-77
2022/01/16 01:00:33;;;;;;;27.20;13.10;;;;;;;2.77;68.73;101840.53;4994216;28;20181;-76
2022/01/16 01:03:05;;;;;;;26.03;13.03;;;;;;;2.23;69.28;101787.47;4976954;28;20181;-77
2022/01/16 01:05:32;;;;;;;21.87;11.47;;;;;;;2.71;69.33;101850.75;4993469;28;20174;-77
2022/01/16 01:07:57;;;;;;;26.80;12.40;;;;;;;2.75;69.30;101879.94;4976137;28;20188;-78
2022/01/16 01:10:31;;;;;;;24.17;12.33;;;;;;;2.55;69.32;101836.59;4993300;28;20181;-79
2022/01/16 01:13:07;;;;;;;23.60;11.57;;;;;;;2.40;69.55;101826.84;4993296;28;20225;-78
2022/01/16 01:15:41;;;;;;;21.40;11.53;;;;;;;2.39;69.09;101884.13;4993702;28;20169;-78
2022/01/16 01:18:07;;;;;;;21.43;11.43;;;;;;;2.58;69.86;101958.50;4993661;28;20177;-77
2022/01/16 01:20:33;;;;;;;20.50;11.93;;;;;;;2.56;69.79;101966.59;4993541;28;20173;-77
2022/01/16 01:22:58;;;;;;;26.07;12.00;;;;;;;2.13;69.61;101839.06;4993690;28;20177;-77
2022/01/16 01:25:24;;;;;;;24.57;11.90;;;;;;;2.65;69.26;101967.88;4993853;28;20691;-78
2022/01/16 01:27:50;;;;;;;21.10;11.17;;;;;;;2.45;69.58;101963.44;4993061;28;20177;-77
2022/01/16 01:30:18;;;;;;;18.97;11.07;;;;;;;2.45;70.30;101922.94;4993210;28;20587;-77
2022/01/16 01:32:47;;;;;;;25.40;11.77;;;;;;;2.54;69.83;101930.94;4993432;28;20293;-76
2022/01/16 01:35:14;;;;;;;21.20;11.57;;;;;;;2.55;70.56;101930.22;4993496;28;20271;-76
2022/01/16 01:37:42;;;;;;;21.87;12.17;;;;;;;2.46;70.73;101924.81;4976560;28;20181;-78
2022/01/16 01:40:11;;;;;;;23.90;12.60;;;;;;;2.50;70.60;101957.41;4993202;28;20727;-77
2022/01/16 01:42:48;;;;;;;24.83;12.50;;;;;;;2.48;70.88;101948.69;4993886;28;20213;-76
2022/01/16 01:51:08;;;;;;;22.87;12.03;;;;;;;2.30;70.97;101949.47;4993162;28;20193;-77
2022/01/16 01:53:35;;;;;;;24.73;12.87;;;;;;;2.18;71.14;101932.59;4975694;28;20192;-77
2022/01/16 01:56:02;;;;;;;23.57;13.03;;;;;;;2.29;71.20;101987.22;4993039;28;20267;-77
2022/01/16 01:58:28;;;;;;;24.43;11.33;;;;;;;2.25;71.52;101949.56;4994649;28;20272;-78
2022/01/16 02:00:53;;;;;;;19.97;11.50;;;;;;;2.31;71.38;101978.25;4996219;28;20702;-77
2022/01/16 02:03:28;;;;;;;25.60;11.53;;;;;;;2.30;71.59;101986.50;4997559;28;20599;-76
2022/01/16 02:05:53;;;;;;;22.57;11.53;;;;;;;2.19;72.13;101984.06;5002609;28;20161;-74
2022/01/16 02:08:19;;;;;;;21.17;11.90;;;;;;;2.12;72.39;101976.28;5009166;28;20241;-74
2022/01/16 02:10:45;;;;;;;24.73;12.27;;;;;;;2.07;72.57;101993.31;5010762;28;20169;-75
2022/01/16 02:13:21;;;;;;;27.47;12.80;;;;;;;2.06;72.58;101988.97;5008935;28;20248;-75
2022/01/16 02:32:23;;;;;;;26.83;12.40;;;;;;;2.20;70.88;101953.00;5003508;28;20195;-75
2022/01/16 02:34:46;;;;;;;26.43;13.07;;;;;;;2.42;70.95;101989.91;4997515;28;20185;-76
2022/01/16 02:37:14;;;;;;;25.17;13.10;;;;;;;2.56;70.42;101991.91;4978008;28;20181;-77
2022/01/16 02:39:45;;;;;;;23.77;11.70;;;;;;;2.61;70.58;101996.91;4995856;28;20184;-75
2022/01/16 02:42:13;;;;;;;23.23;12.30;;;;;;;2.58;70.37;101996.47;4993141;28;20267;-77
2022/01/16 02:44:47;;;;;;;24.53;12.93;;;;;;;2.43;70.03;101966.44;4994180;28;20628;-77
2022/01/16 02:47:17;;;;;;;26.97;12.10;;;;;;;2.47;70.73;101984.81;4996109;28;20177;-77
2022/01/16 02:49:44;;;;;;;24.13;13.10;;;;;;;2.53;70.59;101997.44;4975975;28;20641;-78
2022/01/16 02:52:13;;;;;;;24.23;12.37;;;;;;;2.58;70.52;101990.47;4994156;28;20177;-76
2022/01/16 02:54:41;;;;;;;23.67;13.03;;;;;;;2.66;70.59;101997.56;4993330;28;20209;-74
2022/01/16 02:57:12;;;;;;;23.20;12.90;;;;;;;2.72;69.67;101989.25;4997711;28;20235;-76
2022/01/16 02:59:39;;;;;;;28.37;12.77;;;;;;;2.68;69.55;101988.56;5002063;28;20183;-75
2022/01/16 03:02:07;;;;;;;23.63;12.70;;;;;;;2.67;69.55;101996.88;5002595;28;20247;-76
2022/01/16 03:04:33;;;;;;;20.73;12.13;;;;;;;2.70;69.77;101994.78;4996391;28;20185;-75
2022/01/16 03:07:02;;;;;;;23.63;13.07;;;;;;;2.75;69.96;101988.75;4992792;28;20215;-77
2022/01/16 03:09:46;;;;;;;29.23;13.53;;;;;;;2.74;69.15;101986.91;4993178;28;20173;-76
2022/01/16 03:12:12;;;;;;;21.93;13.27;;;;;;;2.78;68.99;101992.63;5000307;28;20605;-77
2022/01/16 03:14:38;;;;;;;25.23;13.20;;;;;;;2.83;69.37;101998.34;5003010;28;20184;-76
2022/01/16 03:17:04;;;;;;;25.33;12.50;;;;;;;2.81;68.72;101994.69;5003340;28;20259;-76
2022/01/16 03:22:13;;;;;;;28.87;13.50;;;;;;;2.83;68.93;102010.09;5002107;28;20208;-78
2022/01/16 03:24:42;;;;;;;24.23;12.43;;;;;;;2.83;68.65;102003.41;5002037;28;20177;-77
2022/01/16 03:27:19;;;;;;;24.90;12.70;;;;;;;2.75;68.53;101983.69;5001022;28;20371;-76
2022/01/16 03:29:49;;;;;;;27.07;13.87;;;;;;;2.85;68.31;102002.03;5003639;28;20236;-75
2022/01/16 03:32:17;;;;;;;27.10;11.70;;;;;;;2.80;68.42;102002.06;5003271;28;20637;-77
2022/01/16 03:34:43;;;;;;;22.43;12.20;;;;;;;2.67;69.22;101994.34;5002306;28;20177;-77
2022/01/16 03:37:08;;;;;;;22.07;12.33;;;;;;;2.74;69.42;102004.63;5001437;28;20743;-75
2022/01/16 03:39:34;;;;;;;23.33;12.13;;;;;;;2.71;69.26;102012.72;5001127;28;20173;-75
2022/01/16 03:42:01;;;;;;;21.80;12.17;;;;;;;2.70;69.21;102015.03;5001936;28;20209;-78
2022/01/16 03:44:27;;;;;;;23.70;12.83;;;;;;;2.65;69.30;102019.44;4995970;28;20191;-77
2022/01/16 03:46:53;;;;;;;25.43;12.23;;;;;;;2.53;69.63;101995.81;4992644;28;20216;-78
2022/01/16 03:49:22;;;;;;;22.23;12.07;;;;;;;2.44;69.01;101975.88;4992295;28;20213;-78
2022/01/16 03:51:50;;;;;;;21.20;12.27;;;;;;;2.64;69.45;102009.06;4976851;28;20212;-77
2022/01/16 03:54:19;;;;;;;22.53;11.73;;;;;;;2.27;69.19;101959.19;4996475;28;20240;-76
2022/01/16 03:56:45;;;;;;;24.63;12.80;;;;;;;2.62;69.58;102020.63;4996238;28;20178;-76
2022/01/16 03:59:12;;;;;;;24.97;13.63;;;;;;;2.64;69.57;102021.72;4996228;28;20177;-76
2022/01/16 04:01:38;;;;;;;27.80;13.37;;;;;;;2.65;69.06;102028.63;4984621;28;20239;-77
2022/01/16 04:04:04;;;;;;;24.53;12.30;;;;;;;2.50;69.27;101995.38;5006364;28;20173;-76
2022/01/16 04:06:30;;;;;;;20.63;12.10;;;;;;;2.69;69.11;102026.75;5003646;28;20174;-76
2022/01/16 04:08:56;;;;;;;28.90;12.67;;;;;;;2.69;69.38;102029.28;5002770;28;20185;-76
2022/01/16 04:11:24;;;;;;;27.07;14.00;;;;;;;2.57;68.82;102009.81;5002865;28;20228;-77
2022/01/16 04:13:52;;;;;;;23.87;13.37;;;;;;;2.70;68.34;102033.66;4987123;28;20209;-76
2022/01/16 04:16:22;;;;;;;23.67;12.93;;;;;;;2.68;69.23;102040.13;4988746;28;20177;-76
2022/01/16 04:18:51;;;;;;;22.50;12.33;;;;;;;2.52;68.94;102034.47;5006300;28;20181;-76
2022/01/16 04:21:21;;;;;;;23.47;12.17;;;;;;;2.60;69.56;102042.25;5006431;28;20213;-77
2022/01/16 04:23:47;;;;;;;23.57;12.63;;;;;;;2.36;69.18;102001.66;5005882;28;20181;-77
2022/01/16 04:26:14;;;;;;;20.03;11.90;;;;;;;2.63;68.91;102047.75;5004781;28;20188;-77
2022/01/16 04:28:41;;;;;;;25.20;11.93;;;;;;;2.54;68.75;102033.06;4986041;28;20567;-78
2022/01/16 04:31:06;;;;;;;23.07;13.23;;;;;;;2.60;69.25;102043.16;4996942;28;20264;-78
2022/01/16 04:33:32;;;;;;;26.53;13.40;;;;;;;2.52;69.13;102036.06;4995636;28;20637;-77
2022/01/16 04:35:58;;;;;;;25.30;13.00;;;;;;;2.51;68.72;102035.16;4977580;28;20220;-76
2022/01/16 04:38:23;;;;;;;23.97;13.03;;;;;;;2.55;69.00;102054.22;4977073;28;20182;-77
2022/01/16 04:43:48;;;;;;;30.10;15.33;;;;;;;2.49;68.32;102050.78;4994966;28;20164;-77
2022/01/16 04:46:26;;;;;;;29.90;16.27;;;;;;;2.44;67.73;102056.81;4995162;28;20169;-76
2022/01/16 04:48:54;;;;;;;31.13;15.10;;;;;;;2.45;68.07;102067.16;4994995;28;20173;-77
2022/01/16 04:51:20;;;;;;;30.00;15.60;;;;;;;2.27;68.34;102044.25;4994996;28;20188;-77
2022/01/16 04:53:46;;;;;;;27.30;14.10;;;;;;;2.40;67.84;102058.00;4995102;28;20259;-76
2022/01/16 04:56:12;;;;;;;28.20;14.63;;;;;;;2.05;67.55;102002.28;4994470;28;20191;-77
2022/01/16 04:58:38;;;;;;;24.80;13.17;;;;;;;2.31;67.90;102055.03;4976556;28;20177;-77
2022/01/16 05:01:05;;;;;;;26.40;14.10;;;;;;;1.65;68.38;101961.06;4994073;28;20205;-78
2022/01/16 05:03:32;;;;;;;24.43;13.77;;;;;;;2.18;67.88;102069.13;4993672;28;20216;-77
2022/01/16 05:05:58;;;;;;;26.07;13.70;;;;;;;2.09;68.17;102052.63;4993834;28;20204;-79
2022/01/16 05:08:24;;;;;;;20.50;12.97;;;;;;;2.06;68.24;102068.25;4993585;28;20185;-78
2022/01/16 05:10:53;;;;;;;27.70;13.83;;;;;;;2.04;68.81;102066.19;4993835;28;20251;-77
2022/01/16 05:18:33;;;;;;;30.73;15.23;;;;;;;1.50;68.47;101990.09;4979059;28;20189;-77
2022/01/16 05:20:58;;;;;;;27.77;14.37;;;;;;;1.90;68.94;102074.28;4993610;28;20657;-77
2022/01/16 05:23:26;;;;;;;36.80;14.87;;;;;;;1.91;69.38;102076.13;4993665;28;20178;-78
2022/01/16 05:25:52;;;;;;;30.20;15.03;;;;;;;1.90;69.14;102069.25;4993336;28;20268;-77
2022/01/16 05:28:19;;;;;;;27.13;13.97;;;;;;;1.88;69.21;102072.22;4993596;28;20269;-76
2022/01/16 05:30:44;;;;;;;28.63;15.17;;;;;;;1.61;69.84;102014.38;4993541;28;20208;-78
2022/01/16 05:33:11;;;;;;;32.00;14.87;;;;;;;1.77;69.58;102040.31;4993406;28;20625;-77
2022/01/16 05:35:37;;;;;;;31.43;16.27;;;;;;;1.89;69.35;102061.41;4993273;28;20200;-77
2022/01/16 05:38:03;;;;;;;31.00;15.53;;;;;;;1.85;69.79;102060.06;4991935;28;20224;-78
2022/01/16 05:40:28;;;;;;;28.93;15.80;;;;;;;1.83;69.72;102047.16;4992989;28;20173;-77
2022/01/16 05:42:55;;;;;;;33.63;17.20;;;;;;;1.89;69.82;102049.69;4993014;28;20208;-77
2022/01/16 05:45:21;;;;;;;33.33;15.50;;;;;;;1.92;69.76;102062.78;4993096;28;20200;-78
2022/01/16 05:47:46;;;;;;;35.37;16.43;;;;;;;1.92;69.17;102065.31;4993025;28;20645;-76
2022/01/16 05:50:13;;;;;;;32.27;16.17;;;;;;;1.74;69.28;102035.69;4992854;28;20192;-78
2022/01/16 05:52:39;;;;;;;30.50;17.33;;;;;;;1.84;69.26;102076.81;4992844;28;20177;-78
2022/01/16 05:55:05;;;;;;;48.57;24.13;;;;;;;1.93;68.75;102071.28;4993063;28;20196;-78
2022/01/16 05:57:31;;;;;;;46.90;24.70;;;;;;;1.90;68.62;102084.41;4975603;28;20570;-79
2022/01/16 05:59:58;;;;;;;50.90;26.73;;;;;;;1.89;68.79;102079.09;4993027;28;20174;-79
2022/01/16 06:02:25;;;;;;;47.70;23.90;;;;;;;1.81;68.69;102070.41;4992812;28;20705;-78
2022/01/16 06:04:51;;;;;;;45.17;20.80;;;;;;;1.83;69.56;102074.06;4992977;28;20212;-78
2022/01/16 06:07:16;;;;;;;44.23;20.63;;;;;;;1.80;69.51;102076.13;4993260;28;20259;-79
2022/01/16 06:09:42;;;;;;;41.77;18.83;;;;;;;1.27;69.90;101991.72;4993574;28;20192;-78
2022/01/16 06:12:08;;;;;;;37.73;18.53;;;;;;;1.91;69.65;102101.41;4993902;28;20313;-78
2022/01/16 06:14:33;;;;;;;39.67;19.50;;;;;;;1.92;69.24;102089.66;4975625;28;20209;-78
2022/01/16 06:16:59;;;;;;;45.47;21.43;;;;;;;2.00;68.81;102096.78;4993476;28;20182;-80
2022/01/16 06:19:24;;;;;;;150.07;58.40;;;;;;;1.96;69.06;102081.84;4993342;28;20239;-79
2022/01/16 06:21:50;;;;;;;286.40;96.60;;;;;;;2.08;68.60;102083.63;4993022;28;20200;-78
2022/01/16 06:24:16;;;;;;;106.13;39.90;;;;;;;2.10;68.43;102066.19;4975023;28;20188;-79
2022/01/16 06:26:42;;;;;;;42.53;21.57;;;;;;;2.37;67.91;102105.63;4992920;28;20271;-79
2022/01/16 06:29:07;;;;;;;37.00;17.90;;;;;;;2.42;67.51;102112.25;4992727;28;20634;-79
2022/01/16 06:31:33;;;;;;;34.57;17.63;;;;;;;2.42;67.52;102094.53;4993791;28;20268;-81
2022/01/16 06:34:04;;;;;;;31.27;16.73;;;;;;;2.43;67.27;102108.09;4993753;28;20196;-79
2022/01/16 06:36:29;;;;;;;27.17;15.50;;;;;;;2.39;67.04;102080.53;4993581;28;20173;-81
2022/01/16 06:38:56;;;;;;;27.20;15.80;;;;;;;2.46;66.75;102108.53;4992475;28;20188;-78
2022/01/16 06:41:21;;;;;;;26.03;13.93;;;;;;;2.43;66.69;102120.75;4992432;28;20209;-81
2022/01/16 06:43:47;;;;;;;29.63;15.23;;;;;;;2.49;67.38;102117.53;4992394;28;20562;-79
2022/01/16 06:46:13;;;;;;;26.87;15.17;;;;;;;2.47;66.97;102095.22;4993484;28;20716;-80
2022/01/16 06:48:40;;;;;;;36.10;18.43;;;;;;;2.75;66.03;102108.66;4992681;28;20181;-78
2022/01/16 06:51:07;;;;;;;38.97;18.67;;;;;;;3.00;65.50;102123.22;4992561;28;20569;-79
2022/01/16 06:53:32;;;;;;;44.27;23.63;;;;;;;3.24;64.87;102130.88;4962003;28;20192;-79
2022/01/16 06:55:58;;;;;;;35.27;19.37;;;;;;;3.36;63.57;102131.69;4993543;28;20177;-77
2022/01/16 06:58:24;;;;;;;36.67;21.47;;;;;;;3.28;63.38;102109.44;4993299;28;20245;-78
2022/01/16 07:00:49;;;;;;;41.90;24.13;;;;;;;3.61;63.73;102125.03;4993347;28;20205;-81
2022/01/16 07:03:15;;;;;;;37.70;20.50;;;;;;;3.73;62.75;102130.94;4994047;28;20177;-78
2022/01/16 07:05:43;;;;;;;51.27;25.73;;;;;;;3.76;62.98;102127.22;4993551;28;20240;-80
2022/01/16 07:08:09;;;;;;;36.77;19.27;;;;;;;3.82;62.30;102138.22;4993092;28;20173;-80
2022/01/16 07:10:35;;;;;;;40.30;20.27;;;;;;;4.02;60.70;102135.97;4997059;28;20224;-80
2022/01/16 07:13:01;;;;;;;38.73;18.67;;;;;;;4.04;60.75;102129.47;4976899;28;20280;-76
2022/01/16 07:15:27;;;;;;;35.10;17.60;;;;;;;4.13;61.25;102137.44;4991675;28;20285;-77
2022/01/16 07:17:52;;;;;;;39.17;21.30;;;;;;;4.30;60.77;102140.72;4992489;28;20181;-76
2022/01/16 07:20:18;;;;;;;34.97;18.70;;;;;;;4.49;59.41;102131.50;4991800;28;20170;-75
2022/01/16 07:22:44;;;;;;;31.23;17.13;;;;;;;4.46;59.25;102131.06;4992230;28;20209;-78
2022/01/16 07:25:11;;;;;;;36.63;20.23;;;;;;;4.41;59.40;102134.59;4992272;28;20174;-78
2022/01/16 07:27:37;;;;;;;47.13;26.03;;;;;;;4.49;59.41;102135.66;4996866;28;20251;-77
2022/01/16 07:30:04;;;;;;;34.07;19.03;;;;;;;4.44;60.02;102146.78;4997373;28;20665;-79
2022/01/16 07:32:29;;;;;;;29.37;16.83;;;;;;;4.29;59.08;102132.88;4996891;28;20173;-78
2022/01/16 07:34:55;;;;;;;30.67;16.20;;;;;;;4.43;60.00;102144.97;4996480;28;20200;-80
2022/01/16 07:37:22;;;;;;;37.20;17.40;;;;;;;4.46;59.63;102140.31;4996303;28;20259;-76
2022/01/16 07:39:48;;;;;;;33.63;17.23;;;;;;;4.38;59.60;102122.38;4996747;28;20181;-79
2022/01/16 07:42:13;;;;;;;35.20;17.87;;;;;;;4.46;59.12;102125.09;4978064;28;20205;-78
2022/01/16 07:44:39;;;;;;;36.77;20.33;;;;;;;4.62;59.68;102136.63;4979982;28;20181;-79
2022/01/16 07:47:05;;;;;;;39.93;22.67;;;;;;;4.75;58.84;102122.38;4996215;28;20181;-79
2022/01/16 07:49:30;;;;;;;36.10;19.17;;;;;;;4.98;58.41;102137.28;4995666;28;20217;-79
2022/01/16 07:51:56;;;;;;;36.43;18.87;;;;;;;4.97;57.51;102110.06;4996151;28;20272;-84
2022/01/16 07:54:21;;;;;;;48.15;25.33;;;;;;;5.29;57.46;102128.03;4995682;28;20190;-79
2022/01/16 07:56:47;;;;;;;38.60;20.83;;;;;;;5.43;56.76;102141.69;4997391;28;20176;-77
2022/01/16 07:59:14;;;;;;;35.50;19.00;;;;;;;5.41;57.09;102148.19;4996169;28;20269;-80
2022/01/16 08:01:39;;;;;;;31.75;18.42;;;;;;;5.33;56.88;102132.84;4996417;28;20276;-80
2022/01/16 08:04:06;;;;;;;57.57;25.73;;;;;;;5.38;56.34;102135.06;4995726;28;20181;-80
2022/01/16 08:06:32;;;;;;;47.03;22.50;;;;;;;5.42;56.73;102148.41;4995248;28;20191;-77
2022/01/16 08:08:59;;;;;;;38.77;19.23;;;;;;;5.17;57.20;102136.56;4995441;28;20261;-77
2022/01/16 08:11:24;;;;;;;39.60;21.25;;;;;;;5.39;57.61;102164.84;4978527;28;20229;-79
2022/01/16 08:13:51;;;;;;;28.48;16.50;;;;;;;5.29;56.65;102129.66;4996894;28;20228;-80
2022/01/16 08:16:16;;;;;;;29.73;16.93;;;;;;;5.52;56.56;102154.03;4978400;28;20193;-78
2022/01/16 08:18:42;;;;;;;33.85;17.38;;;;;;;5.48;57.23;102154.31;4995501;28;20181;-78
2022/01/16 08:21:07;;;;;;;30.65;15.93;;;;;;;5.52;57.11;102156.56;4993829;28;20592;-80
2022/01/16 08:23:33;;;;;;;34.53;18.63;;;;;;;5.46;57.13;102115.06;4994543;28;20617;-78
2022/01/16 08:25:59;;;;;;;54.92;26.25;;;;;;;5.91;57.08;102131.16;4976072;28;20553;-78
2022/01/16 08:28:25;;;;;;;35.83;19.55;;;;;;;6.08;55.98;102123.25;4993927;28;20185;-77
2022/01/16 08:30:51;;;;;;;34.80;18.33;;;;;;;6.10;55.40;102132.88;4975721;28;20277;-78
2022/01/16 08:33:17;;;;;;;34.53;15.95;;;;;;;6.09;55.37;102105.63;4994505;28;20212;-79
2022/01/16 08:35:44;;;;;;;28.63;16.92;;;;;;;6.12;54.79;102093.28;4994763;28;20650;-78
2022/01/16 08:38:10;;;;;;;30.30;15.73;;;;;;;6.41;54.92;102122.53;4978601;28;20790;-80
2022/01/16 08:40:36;;;;;;;31.52;16.83;;;;;;;6.68;54.52;102129.41;4994266;28;20177;-79
2022/01/16 08:43:08;;;;;;;31.50;16.50;;;;;;;6.89;54.41;102128.72;4993486;28;20212;-77
2022/01/16 08:45:37;;;;;;;30.08;17.45;;;;;;;7.08;53.30;102109.06;4994091;28;20165;-79
2022/01/16 08:48:03;;;;;;;29.60;15.70;;;;;;;7.33;53.06;102126.75;4993527;28;20186;-78
2022/01/16 08:50:30;;;;;;;32.15;17.58;;;;;;;7.56;51.98;102116.91;4993512;28;20244;-79
2022/01/16 08:52:55;;;;;;;32.60;16.63;;;;;;;7.68;51.44;102103.84;4993124;28;20187;-79
2022/01/16 08:55:21;;;;;;;30.30;17.00;;;;;;;7.60;52.09;102103.81;4993611;28;20173;-78
2022/01/16 08:57:47;;;;;;;36.85;19.88;;;;;;;7.64;52.01;102090.72;4993407;28;20205;-78
2022/01/16 09:00:12;;;;;;;37.33;18.52;;;;;;;7.68;52.05;102089.47;4993447;28;20181;-78
2022/01/16 09:02:38;;;;;;;29.25;16.98;;;;;;;7.67;52.28;102096.94;4993107;28;20201;-80
2022/01/16 09:05:05;;;;;;;33.45;19.45;;;;;;;7.65;52.11;102091.63;4997600;28;20177;-79
2022/01/16 09:07:31;;;;;;;32.30;18.45;;;;;;;7.73;52.45;102092.59;4999077;28;20177;-79
2022/01/16 09:09:59;;;;;;;46.92;24.05;;;;;;;7.73;52.59;102090.06;4999076;28;20169;-80
2022/01/16 09:12:25;;;;;;;31.35;19.17;;;;;;;7.76;51.74;102085.34;4958403;28;1185092;-79
2022/01/16 09:14:52;;;;;;;31.75;17.88;;;;;;;7.80;51.71;102085.88;5001575;28;20216;-80
2022/01/16 09:17:17;;;;;;;29.90;16.67;;;;;;;7.82;51.94;102074.25;4999596;28;20189;-78
2022/01/16 09:19:43;;;;;;;35.10;18.35;;;;;;;7.72;52.64;102014.22;4995455;28;20192;-77
2022/01/16 09:22:08;;;;;;;29.63;17.50;;;;;;;8.08;51.58;102044.25;4976888;28;20205;-78
2022/01/16 09:24:34;;;;;;;36.10;19.83;;;;;;;8.01;51.88;102005.97;4993969;28;20228;-78
2022/01/16 09:27:00;;;;;;;27.60;18.13;;;;;;;8.60;51.27;102057.41;4993492;28;20189;-78
2022/01/16 09:29:26;;;;;;;41.10;21.80;;;;;;;8.65;50.71;102027.28;4993769;28;20181;-78
2022/01/16 09:31:52;;;;;;;32.33;17.40;;;;;;;8.93;50.50;102072.38;4994100;28;20220;-78
2022/01/16 09:34:17;;;;;;;27.30;16.02;;;;;;;8.84;51.08;102066.19;4975853;28;20196;-75
2022/01/16 09:36:43;;;;;;;28.92;15.85;;;;;;;8.91;49.94;102077.34;4993583;28;20193;-77
2022/01/16 09:39:09;;;;;;;25.27;15.38;;;;;;;8.97;51.69;102070.41;4993119;28;20232;-77
2022/01/16 09:41:35;;;;;;;27.65;15.55;;;;;;;9.29;56.61;102060.53;4993169;28;20205;-77
2022/01/16 09:44:01;;;;;;;30.00;17.77;;;;;;;9.41;52.54;102051.72;4992851;28;20642;-76
2022/01/16 09:46:26;;;;;;;29.13;15.45;;;;;;;9.42;48.86;102060.31;4993253;28;20185;-76
2022/01/16 09:48:52;;;;;;;28.42;15.60;;;;;;;9.38;49.21;102056.50;4992442;28;20174;-75
2022/01/16 09:51:17;;;;;;;23.88;15.23;;;;;;;9.46;52.27;102036.91;4992589;28;20190;-74
2022/01/16 09:53:43;;;;;;;28.98;15.32;;;;;;;9.75;47.94;102059.84;4992911;28;20174;-76
2022/01/16 09:56:09;;;;;;;26.42;15.18;;;;;;;9.58;47.71;102040.91;4992953;28;20521;-77
2022/01/16 09:58:35;;;;;;;27.98;16.30;;;;;;;9.55;49.14;102026.84;4975448;28;20177;-77
2022/01/16 10:01:02;;;;;;;30.13;16.88;;;;;;;9.81;47.75;102050.34;4992437;28;20196;-76
2022/01/16 10:03:39;;;;;;;25.00;14.82;;;;;;;10.07;51.27;102040.56;4993023;28;20188;-79
2022/01/16 10:06:11;;;;;;;29.52;16.80;;;;;;;10.17;47.59;102051.09;4992692;28;20686;-77
2022/01/16 10:08:39;;;;;;;25.55;14.80;;;;;;;10.04;47.57;102041.09;4992943;28;20256;-79
2022/01/16 10:11:30;;;;;;;24.85;15.13;;;;;;;9.94;46.84;102040.78;4992510;28;20219;-77
2022/01/16 10:14:46;;;;;;;31.05;15.50;;;;;;;10.09;49.71;102034.88;4975127;28;20228;-78
2022/01/16 10:16:49;;;;;;;27.42;16.42;;;;;;;10.16;46.97;102022.03;4986849;28;20193;-79
2022/01/16 10:19:22;;;;;;;29.40;17.25;;;;;;;10.33;45.92;102041.91;4992968;28;20177;-78
2022/01/16 10:21:49;;;;;;;25.77;14.75;;;;;;;10.10;46.16;102013.63;4993002;28;20220;-77
2022/01/16 10:24:16;;;;;;;31.90;17.00;;;;;;;10.38;46.22;102040.78;4992638;28;20169;-77
2022/01/16 10:26:43;;;;;;;25.25;14.85;;;;;;;10.58;47.32;102034.44;4992937;28;20188;-78
2022/01/16 10:29:14;;;;;;;28.23;16.48;;;;;;;10.55;45.37;101982.81;4992459;28;20173;-80
2022/01/16 10:31:39;;;;;;;24.80;14.65;;;;;;;10.73;44.08;102005.38;4975387;28;20173;-79
2022/01/16 10:34:22;;;;;;;24.65;12.68;;;;;;;10.33;44.09;101982.97;4992352;28;20189;-78
2022/01/16 10:36:48;;;;;;;27.75;15.63;;;;;;;10.37;44.80;102007.28;4992036;28;20255;-78
2022/01/16 10:39:13;;;;;;;30.67;15.63;;;;;;;10.42;44.41;102008.72;4991962;28;20252;-78
2022/01/16 10:41:40;;;;;;;25.38;15.30;;;;;;;10.57;45.45;102014.66;4991929;28;20480;-77
2022/01/16 10:44:26;;;;;;;22.63;13.20;;;;;;;10.88;46.79;102002.72;4992848;28;20244;-80
2022/01/16 10:46:52;;;;;;;32.15;15.80;;;;;;;11.37;45.96;102003.88;4992326;28;20171;-77
2022/01/16 10:49:19;;;;;;;22.30;13.82;;;;;;;11.54;43.18;101992.88;4992056;28;20177;-78
2022/01/16 10:52:06;;;;;;;23.17;13.75;;;;;;;11.21;42.91;101957.66;4991827;28;20266;-77
2022/01/16 10:54:34;;;;;;;22.75;13.20;;;;;;;11.08;43.60;101949.38;4991978;28;20222;-79
2022/01/16 10:57:22;;;;;;;30.77;16.27;;;;;;;11.45;45.45;101984.19;4991528;28;20177;-77
2022/01/16 10:59:48;;;;;;;26.10;14.48;;;;;;;11.60;42.49;101990.97;4992909;28;20162;-76
2022/01/16 11:02:13;;;;;;;26.70;13.80;;;;;;;11.55;42.92;101987.88;4992984;28;20704;-76
2022/01/16 11:04:41;;;;;;;26.40;14.35;;;;;;;11.62;43.00;101973.16;4991879;28;20177;-80
2022/01/16 11:07:06;;;;;;;25.83;14.98;;;;;;;11.81;42.70;101982.09;4974455;28;20169;-77
2022/01/16 11:09:32;;;;;;;22.15;13.20;;;;;;;11.87;42.30;101972.50;4993252;28;20177;-79
2022/01/16 11:11:59;;;;;;;22.10;13.43;;;;;;;11.84;42.18;101963.50;4993818;28;20232;-76
2022/01/16 11:14:29;;;;;;;20.58;13.48;;;;;;;11.67;42.62;101970.34;4992580;28;20264;-77
2022/01/16 11:16:56;;;;;;;24.23;14.55;;;;;;;11.60;42.97;101965.28;4992568;28;20240;-77
2022/01/16 11:19:24;;;;;;;26.77;15.15;;;;;;;11.93;47.01;101961.94;4991625;28;20169;-77
2022/01/16 11:21:56;;;;;;;29.52;13.70;;;;;;;12.22;42.32;101957.34;4991483;28;20197;-76
2022/01/16 11:24:48;;;;;;;23.45;14.05;;;;;;;12.34;41.67;101957.72;4993682;28;20528;-76
2022/01/16 11:27:17;;;;;;;22.98;13.57;;;;;;;12.29;41.27;101922.91;4978917;28;20182;-77
2022/01/16 11:29:43;;;;;;;34.33;20.10;;;;;;;12.47;42.21;101945.38;4991985;28;20185;-77
2022/01/16 11:32:09;;;;;;;59.95;34.40;;;;;;;12.95;44.53;101948.59;4992647;28;20184;-78
2022/01/16 11:34:36;;;;;;;30.88;16.17;;;;;;;13.24;42.65;101932.59;4975309;28;20185;-80
2022/01/16 11:37:02;;;;;;;22.90;15.27;;;;;;;13.48;39.62;101936.75;4993185;28;20177;-77
2022/01/16 11:39:35;;;;;;;25.52;14.35;;;;;;;13.74;38.71;101940.25;4993723;28;20178;-79
2022/01/16 11:42:02;;;;;;;27.70;14.98;;;;;;;13.68;38.50;101924.19;4992444;28;20719;-77
2022/01/16 11:44:32;;;;;;;25.25;14.27;;;;;;;13.67;38.71;101942.06;4992155;28;20207;-77
2022/01/16 11:47:04;;;;;;;21.45;13.07;;;;;;;13.40;38.50;101931.75;4992076;28;20181;-78
2022/01/16 11:49:38;;;;;;;25.13;14.65;;;;;;;13.35;39.12;101925.25;4991745;28;20181;-78
2022/01/16 11:52:13;;;;;;;18.95;12.82;;;;;;;12.84;39.11;101836.91;4975015;28;20192;-78
2022/01/16 11:54:44;;;;;;;25.52;13.95;;;;;;;13.30;40.67;101913.59;4992545;28;20200;-78